Time;durP1;ratioP1;P1;durP2;ratioP2;P2;SDS_P1;SDS_P2;PMS_P1;PMS_P2;Temp;Humidity;BMP_temperature;BMP_pressure;BME280_temperature;BME280_humidity;BME280_pressure;Samples;Min_cycle;Max_cycle;Signal;HPM_P1;HPM_P2
2023/09/27 00:01:44;;;;;;;3.25;2.70;;;;;;;14.52;100.00;98356.28;1212693;75;3817261;-76
2023/09/27 00:04:16;;;;;;;2.75;2.10;;;;;;;14.65;100.00;98348.44;1221030;75;3064816;-75
2023/09/27 00:06:50;;;;;;;2.25;1.95;;;;;;;14.75;100.00;98349.03;1228872;75;2913165;-74
2023/09/27 00:09:22;;;;;;;2.95;2.30;;;;;;;14.73;100.00;98348.00;1221669;75;3058299;-76
2023/09/27 00:11:55;;;;;;;2.25;2.05;;;;;;;14.64;100.00;98349.66;1226682;75;2923224;-74
2023/09/27 00:14:30;;;;;;;2.90;2.50;;;;;;;14.63;100.00;98355.69;1215767;75;3838013;-77
2023/09/27 00:17:03;;;;;;;3.10;2.80;;;;;;;14.51;100.00;98354.03;1227724;75;2922575;-73
2023/09/27 00:19:38;;;;;;;2.65;2.45;;;;;;;14.43;100.00;98361.94;1228720;75;2923035;-77
2023/09/27 00:22:11;;;;;;;3.00;2.60;;;;;;;14.64;100.00;98352.44;1225613;75;2942402;-74
2023/09/27 00:24:44;;;;;;;2.60;2.40;;;;;;;14.40;100.00;98349.91;1227271;75;2922431;-78
2023/09/27 00:27:17;;;;;;;2.55;2.35;;;;;;;14.59;100.00;98352.38;1226403;75;2916496;-73
2023/09/27 00:29:53;;;;;;;2.50;1.90;;;;;;;14.41;100.00;98347.94;1226027;75;2955481;-74
2023/09/27 00:32:25;;;;;;;1.80;1.70;;;;;;;14.58;100.00;98348.13;1228283;75;2912149;-73
2023/09/27 00:34:59;;;;;;;2.10;1.70;;;;;;;14.58;100.00;98346.13;1228086;75;2913560;-77
2023/09/27 00:37:31;;;;;;;2.50;2.30;;;;;;;14.38;100.00;98341.38;1215932;75;3787714;-74
2023/09/27 00:40:09;;;;;;;2.75;2.20;;;;;;;14.45;100.00;98332.66;1221439;75;3082338;-74
2023/09/27 00:42:42;;;;;;;1.60;1.50;;;;;;;14.48;100.00;98331.72;1227970;75;2916548;-74
2023/09/27 00:45:18;;;;;;;2.00;1.80;;;;;;;14.33;100.00;98344.06;1227746;75;2919314;-75
2023/09/27 00:47:54;;;;;;;1.90;1.70;;;;;;;14.37;100.00;98339.84;1213414;75;3943330;-74
2023/09/27 00:50:27;;;;;;;2.00;1.70;;;;;;;14.37;100.00;98342.63;1223917;75;3046385;-76
2023/09/27 00:53:00;;;;;;;2.30;1.70;;;;;;;14.43;100.00;98340.69;1222114;75;3054387;-74
2023/09/27 00:55:33;;;;;;;1.70;1.60;;;;;;;14.35;100.00;98339.59;1221236;75;3098450;-73
2023/09/27 00:58:06;;;;;;;1.85;1.70;;;;;;;14.33;100.00;98338.56;1199759;75;5022622;-73
2023/09/27 01:00:42;;;;;;;1.60;1.40;;;;;;;14.34;100.00;98337.34;1221525;75;3088340;-75
2023/09/27 01:03:16;;;;;;;2.00;1.80;;;;;;;14.30;100.00;98329.25;1221488;75;3088332;-74
2023/09/27 01:05:51;;;;;;;3.40;2.80;;;;;;;14.03;100.00;98335.97;1225982;75;2941275;-74
2023/09/27 01:08:23;;;;;;;2.35;2.15;;;;;;;14.15;100.00;98332.13;1227459;75;2918711;-75
2023/09/27 01:10:56;;;;;;;2.25;2.05;;;;;;;14.20;100.00;98327.91;1224318;75;3007207;-75
2023/09/27 01:13:29;;;;;;;1.95;1.75;;;;;;;14.20;100.00;98333.41;1202416;75;3969988;-75
2023/09/27 01:16:04;;;;;;;3.05;2.55;;;;;;;14.11;100.00;98328.06;1226059;75;2924627;-74
2023/09/27 01:18:37;;;;;;;2.70;1.90;;;;;;;14.14;100.00;98329.84;1222138;75;3081062;-77
2023/09/27 01:21:10;;;;;;;2.20;2.00;;;;;;;14.03;100.00;98333.22;1220345;75;3099413;-76
2023/09/27 01:23:45;;;;;;;2.25;2.05;;;;;;;14.07;100.00;98331.78;1223512;75;3055201;-74
2023/09/27 01:26:20;;;;;;;2.60;2.40;;;;;;;13.99;100.00;98332.66;1224458;75;2996208;-77
2023/09/27 01:28:53;;;;;;;2.00;1.80;;;;;;;13.95;100.00;98330.13;1227293;75;2916155;-75
2023/09/27 01:31:26;;;;;;;2.85;2.25;;;;;;;13.74;100.00;98326.63;1211514;75;4031087;-76
2023/09/27 01:33:58;;;;;;;2.20;2.00;;;;;;;13.79;100.00;98317.66;1207641;75;3888700;-76
2023/09/27 01:36:31;;;;;;;2.65;1.95;;;;;;;13.91;100.00;98315.06;1226227;75;2928747;-77
2023/09/27 01:39:07;;;;;;;1.65;1.55;;;;;;;13.85;100.00;98312.22;1227004;75;2923173;-79
2023/09/27 01:41:39;;;;;;;1.60;1.50;;;;;;;13.83;100.00;98309.97;1220969;75;3102206;-77
2023/09/27 01:44:12;;;;;;;2.10;1.90;;;;;;;13.69;100.00;98308.03;1223974;75;3050878;-77
2023/09/27 01:46:45;;;;;;;2.65;2.30;;;;;;;13.65;100.00;98312.97;1212545;75;3783789;-75
2023/09/27 01:49:17;;;;;;;2.95;2.20;;;;;;;13.74;100.00;98315.59;1227309;75;2922538;-74
2023/09/27 01:51:51;;;;;;;2.15;1.95;;;;;;;13.71;100.00;98313.03;1224423;75;3088827;-76
2023/09/27 01:54:26;;;;;;;1.95;1.75;;;;;;;13.73;100.00;98310.56;1226985;75;2920629;-76
2023/09/27 01:56:58;;;;;;;2.20;2.00;;;;;;;13.71;100.00;98313.81;1227418;75;2922697;-76
2023/09/27 01:59:31;;;;;;;2.25;1.60;;;;;;;13.74;100.00;98310.09;1224019;75;3099328;-75
2023/09/27 02:02:04;;;;;;;1.95;1.75;;;;;;;13.71;100.00;98307.53;1226862;75;2920620;-76
2023/09/27 02:04:39;;;;;;;2.15;1.95;;;;;;;13.61;100.00;98310.44;1224265;75;2987543;-77
2023/09/27 02:07:12;;;;;;;1.60;1.50;;;;;;;13.52;100.00;98305.06;1225514;75;2921929;-76
2023/09/27 02:09:47;;;;;;;2.75;1.70;;;;;;;13.56;100.00;98297.34;1196532;75;5440611;-78
2023/09/27 02:12:20;;;;;;;2.15;1.65;;;;;;;13.47;100.00;98300.25;1227518;75;2924323;-75
2023/09/27 02:14:53;;;;;;;2.25;2.05;;;;;;;13.34;100.00;98303.31;1223484;75;3084556;-74
2023/09/27 02:17:25;;;;;;;1.80;1.70;;;;;;;13.53;100.00;98306.56;1191949;75;5437786;-75
2023/09/27 02:19:58;;;;;;;2.30;1.80;;;;;;;13.45;100.00;98307.47;1208511;75;4072512;-74
2023/09/27 02:22:31;;;;;;;2.30;2.10;;;;;;;13.48;100.00;98304.50;1227554;75;2905993;-74
2023/09/27 02:25:11;;;;;;;3.30;2.20;;;;;;;13.41;100.00;98302.91;1226309;75;2965583;-76
2023/09/27 02:27:44;;;;;;;2.55;2.30;;;;;;;13.40;100.00;98308.91;1192059;75;5748518;-77
2023/09/27 02:30:17;;;;;;;3.10;2.10;;;;;;;13.22;100.00;98305.09;1225860;75;2936730;-75
2023/09/27 02:32:50;;;;;;;2.60;2.40;;;;;;;13.42;100.00;98303.66;1228507;75;2916717;-78
2023/09/27 02:35:23;;;;;;;2.45;2.20;;;;;;;13.21;100.00;98303.59;1222084;75;3022549;-74
2023/09/27 02:37:55;;;;;;;2.25;2.00;;;;;;;13.26;100.00;98304.94;1225126;75;3015846;-76
2023/09/27 02:40:30;;;;;;;2.60;2.30;;;;;;;13.16;100.00;98298.78;1220276;75;3088358;-76
2023/09/27 02:43:03;;;;;;;2.75;2.45;;;;;;;13.29;100.00;98304.00;1225996;75;2925577;-74
2023/09/27 02:45:36;;;;;;;2.70;2.30;;;;;;;13.22;100.00;98302.38;1223030;75;3005649;-75
2023/09/27 02:48:09;;;;;;;2.50;2.30;;;;;;;13.33;100.00;98298.31;1226002;75;2931758;-75
2023/09/27 02:50:42;;;;;;;1.80;1.70;;;;;;;13.30;100.00;98293.75;1222776;75;3081361;-75
2023/09/27 02:53:15;;;;;;;2.35;2.10;;;;;;;13.33;100.00;98293.56;1225600;75;2934473;-75
2023/09/27 02:55:50;;;;;;;2.20;1.85;;;;;;;13.33;100.00;98293.56;1211402;75;4021190;-74
2023/09/27 02:58:23;;;;;;;1.80;1.70;;;;;;;13.32;100.00;98291.28;1227060;75;2925237;-78
2023/09/27 03:00:56;;;;;;;2.00;1.80;;;;;;;13.19;100.00;98300.56;1221380;75;3082542;-75
2023/09/27 03:03:30;;;;;;;2.40;2.20;;;;;;;13.18;100.00;98293.56;1206703;75;4110372;-80
2023/09/27 03:06:04;;;;;;;2.40;2.15;;;;;;;13.20;100.00;98301.31;1224868;75;2962732;-73
2023/09/27 03:08:38;;;;;;;4.30;2.20;;;;;;;13.21;100.00;98286.38;1227062;75;2918923;-75
2023/09/27 03:11:13;;;;;;;2.40;2.20;;;;;;;13.13;100.00;98294.25;1225916;75;2949757;-77
2023/09/27 03:13:47;;;;;;;2.85;2.20;;;;;;;13.15;100.00;98291.00;1224313;75;3100733;-75
2023/09/27 03:16:20;;;;;;;2.40;2.20;;;;;;;13.02;100.00;98293.31;1227271;75;2916657;-75
2023/09/27 03:18:54;;;;;;;4.00;2.45;;;;;;;12.99;100.00;98287.53;1225274;75;2921450;-74
2023/09/27 03:21:27;;;;;;;3.05;2.75;;;;;;;12.85;100.00;98290.31;1219783;75;3065557;-75
2023/09/27 03:24:00;;;;;;;2.85;2.55;;;;;;;12.73;100.00;98294.88;1219647;75;3011680;-77
2023/09/27 03:26:35;;;;;;;2.75;2.20;;;;;;;12.93;100.00;98285.94;1222395;75;3024310;-77
2023/09/27 03:29:08;;;;;;;2.50;2.30;;;;;;;12.89;100.00;98296.34;1224808;75;2892987;-77
2023/09/27 03:31:41;;;;;;;2.80;2.50;;;;;;;12.71;100.00;98297.34;1218818;75;3064983;-75
2023/09/27 03:34:13;;;;;;;3.75;2.85;;;;;;;12.85;100.00;98298.56;1220383;75;3019213;-74
2023/09/27 03:36:48;;;;;;;2.30;2.10;;;;;;;12.74;100.00;98293.63;1221227;75;3000163;-74
2023/09/27 03:39:22;;;;;;;2.65;2.35;;;;;;;12.68;100.00;98295.53;1196129;75;4942188;-76
2023/09/27 03:41:57;;;;;;;3.85;3.00;;;;;;;12.60;100.00;98297.13;1223760;75;2919336;-79
2023/09/27 03:44:30;;;;;;;3.65;2.75;;;;;;;12.69;100.00;98303.28;1220217;75;3046574;-77
2023/09/27 03:47:03;;;;;;;2.65;2.45;;;;;;;12.61;100.00;98299.41;1220896;75;3089207;-76
2023/09/27 03:49:35;;;;;;;2.90;2.60;;;;;;;12.64;100.00;98300.47;1225933;75;2931250;-78
2023/09/27 03:52:08;;;;;;;3.15;2.85;;;;;;;12.56;100.00;98297.34;1224703;75;2924570;-75
2023/09/27 03:54:41;;;;;;;3.25;2.90;;;;;;;12.47;100.00;98308.41;1224471;75;2927294;-78
2023/09/27 03:57:16;;;;;;;3.10;2.35;;;;;;;12.65;100.00;98308.22;1223841;75;2930093;-77
2023/09/27 03:59:50;;;;;;;4.30;2.50;;;;;;;12.46;100.00;98306.88;1224535;75;2926204;-77
2023/09/27 04:02:22;;;;;;;2.60;2.40;;;;;;;12.42;100.00;98307.06;1223965;75;2932003;-75
2023/09/27 04:04:55;;;;;;;2.10;1.90;;;;;;;12.63;100.00;98302.44;1222123;75;2939901;-74
2023/09/27 04:07:28;;;;;;;2.90;2.55;;;;;;;12.40;100.00;98309.53;1223739;75;2925815;-77
2023/09/27 04:10:00;;;;;;;3.40;2.85;;;;;;;12.43;100.00;98313.31;1221122;75;3099524;-77
2023/09/27 04:12:36;;;;;;;2.50;2.30;;;;;;;12.40;100.00;98309.53;1223772;75;2932341;-73
2023/09/27 04:15:11;;;;;;;2.55;2.30;;;;;;;12.45;100.00;98316.34;1218221;75;3083668;-73
2023/09/27 04:17:43;;;;;;;2.10;1.90;;;;;;;12.41;100.00;98305.56;1218388;75;3072197;-76
2023/09/27 04:20:19;;;;;;;2.80;2.50;;;;;;;12.40;100.00;98303.28;1220556;75;3053136;-79
2023/09/27 04:22:53;;;;;;;2.80;2.45;;;;;;;12.36;100.00;98314.44;1221532;75;2934789;-78
2023/09/27 04:25:25;;;;;;;2.30;2.10;;;;;;;12.38;100.00;98311.22;1220706;75;3022307;-77
2023/09/27 04:28:01;;;;;;;4.45;3.85;;;;;;;12.31;100.00;98302.16;1224007;75;2917255;-80
2023/09/27 04:30:33;;;;;;;5.40;4.85;;;;;;;12.17;100.00;98313.09;1224723;75;2928761;-79
2023/09/27 04:33:07;;;;;;;4.50;4.00;;;;;;;12.09;100.00;98309.94;1218027;75;3131977;-75
2023/09/27 04:35:39;;;;;;;4.05;3.45;;;;;;;12.08;100.00;98313.94;1220378;75;3109978;-77
2023/09/27 04:38:13;;;;;;;6.40;5.55;;;;;;;12.10;100.00;98314.97;1207622;75;4024277;-72
2023/09/27 04:40:46;;;;;;;6.00;5.35;;;;;;;12.00;100.00;98315.50;1223623;75;2940388;-76
2023/09/27 04:43:21;;;;;;;6.25;5.40;;;;;;;12.08;100.00;98313.94;1225229;75;2926070;-77
2023/09/27 04:45:54;;;;;;;6.95;5.55;;;;;;;12.00;100.00;98319.03;1225330;75;2927644;-77
2023/09/27 04:48:27;;;;;;;9.75;8.55;;;;;;;12.08;100.00;98322.91;1218969;75;3098415;-79
2023/09/27 04:51:00;;;;;;;8.80;6.90;;;;;;;12.01;100.00;98317.78;1208082;75;4107171;-77
2023/09/27 04:53:37;;;;;;;7.65;5.85;;;;;;;12.09;100.00;98327.16;1220309;75;3101261;-76
2023/09/27 04:56:11;;;;;;;6.40;5.35;;;;;;;12.12;100.00;98334.47;1223505;75;2930060;-80
2023/09/27 04:58:46;;;;;;;5.00;3.90;;;;;;;12.09;100.00;98335.41;1221281;75;2964516;-76
2023/09/27 05:01:19;;;;;;;5.05;4.00;;;;;;;12.06;100.00;98341.84;1221366;75;3098262;-79
2023/09/27 05:03:52;;;;;;;4.20;3.75;;;;;;;12.20;100.00;98336.88;1218882;75;3072546;-75
2023/09/27 05:06:24;;;;;;;3.90;3.50;;;;;;;12.14;100.00;98339.50;1220307;75;3026132;-75
2023/09/27 05:08:57;;;;;;;4.90;3.40;;;;;;;12.12;100.00;98339.19;1223034;75;2922107;-75
2023/09/27 05:11:32;;;;;;;3.50;3.00;;;;;;;12.22;100.00;98337.13;1222372;75;3064962;-77
2023/09/27 05:14:08;;;;;;;4.30;3.50;;;;;;;12.18;100.00;98347.56;1223964;75;2946138;-75
2023/09/27 05:16:41;;;;;;;3.40;3.10;;;;;;;12.25;100.00;98336.22;1223459;75;2935192;-78
2023/09/27 05:19:13;;;;;;;4.85;3.80;;;;;;;12.13;100.00;98354.44;1225117;75;2924947;-75
2023/09/27 05:21:46;;;;;;;4.10;3.60;;;;;;;12.21;100.00;98341.88;1224723;75;2936452;-79
2023/09/27 05:24:19;;;;;;;3.35;3.05;;;;;;;12.22;100.00;98351.63;1221481;75;3003939;-77
2023/09/27 05:26:51;;;;;;;3.75;3.45;;;;;;;12.28;100.00;98357.22;1221013;75;3072806;-77
2023/09/27 05:29:27;;;;;;;2.70;2.50;;;;;;;12.43;100.00;98357.25;1222602;75;2926276;-83
2023/09/27 05:31:59;;;;;;;4.35;3.95;;;;;;;12.48;100.00;98360.13;1219610;75;3046285;-76
2023/09/27 05:34:34;;;;;;;7.80;6.35;;;;;;;12.51;100.00;98358.41;1222859;75;2931281;-75
2023/09/27 05:37:06;;;;;;;6.10;5.50;;;;;;;12.49;100.00;98364.38;1221116;75;3001026;-77
2023/09/27 05:39:39;;;;;;;5.20;4.70;;;;;;;12.53;100.00;98361.44;1208731;75;3902832;-79
2023/09/27 05:42:13;;;;;;;5.90;4.45;;;;;;;12.50;100.00;98365.88;1221920;75;2934481;-75
2023/09/27 05:44:48;;;;;;;4.80;4.40;;;;;;;12.64;100.00;98367.13;1218951;75;3083752;-77
2023/09/27 05:47:24;;;;;;;3.40;2.75;;;;;;;12.68;100.00;98364.97;1220579;75;3028822;-76
2023/09/27 05:49:57;;;;;;;4.20;3.80;;;;;;;12.66;100.00;98381.16;1222488;75;2917979;-74
2023/09/27 05:52:31;;;;;;;4.10;3.65;;;;;;;12.77;100.00;98377.84;1218385;75;3023568;-75
2023/09/27 05:55:05;;;;;;;5.75;4.00;;;;;;;12.68;100.00;98381.44;1220922;75;2938780;-74
2023/09/27 05:57:38;;;;;;;5.05;4.55;;;;;;;12.67;100.00;98381.91;1221905;75;2940304;-77
2023/09/27 06:00:22;;;;;;;4.75;4.25;;;;;;;12.84;100.00;98374.72;1194230;75;5052781;-76
2023/09/27 06:02:55;;;;;;;5.10;3.55;;;;;;;13.08;100.00;98379.38;1214075;75;2937188;-80
2023/09/27 06:05:27;;;;;;;4.65;3.95;;;;;;;13.23;100.00;98382.88;1221502;75;2997643;-76
2023/09/27 06:08:00;;;;;;;4.05;3.40;;;;;;;13.21;100.00;98380.59;1221883;75;2923733;-75
2023/09/27 06:10:33;;;;;;;2.90;2.60;;;;;;;13.49;100.00;98385.03;1216987;75;3088211;-75
2023/09/27 06:13:07;;;;;;;4.40;3.50;;;;;;;13.50;100.00;98386.56;1222277;75;2975935;-74
2023/09/27 06:15:42;;;;;;;4.30;3.35;;;;;;;13.86;100.00;98385.31;1220425;75;2993297;-75
2023/09/27 06:18:15;;;;;;;4.30;3.40;;;;;;;16.82;100.00;98383.81;1223357;75;2927166;-72
2023/09/27 06:20:47;;;;;;;3.65;3.20;;;;;;;19.49;100.00;98383.09;1224013;75;2916942;-78
2023/09/27 06:23:22;;;;;;;3.40;3.10;;;;;;;20.51;88.83;98380.69;1217780;75;3114318;-74
2023/09/27 06:25:54;;;;;;;4.35;3.80;;;;;;;21.37;81.59;98392.09;1224095;75;2925150;-77
2023/09/27 06:28:27;;;;;;;4.95;3.80;;;;;;;21.83;77.23;98395.59;1223691;75;2927200;-76
2023/09/27 06:31:03;;;;;;;4.45;3.80;;;;;;;22.48;72.60;98388.50;1222000;75;2922156;-76
2023/09/27 06:33:38;;;;;;;5.10;3.80;;;;;;;23.39;69.41;98381.59;1222366;75;2923736;-79
2023/09/27 06:36:11;;;;;;;5.90;3.40;;;;;;;25.26;63.06;98386.97;1220760;75;2966470;-75
2023/09/27 06:38:41;;;;;;;6.00;3.80;;;;;;;24.01;65.25;98389.13;1221363;75;2979025;-79
2023/09/27 06:41:15;;;;;;;7.20;3.90;;;;;;;24.32;63.95;98388.56;1223757;75;2931880;-77
2023/09/27 06:43:48;;;;;;;5.00;3.30;;;;;;;26.33;57.97;98394.47;1222266;75;2927014;-77
2023/09/27 06:46:23;;;;;;;7.70;3.90;;;;;;;25.51;59.12;98401.16;1219596;75;3031989;-80
2023/09/27 06:48:56;;;;;;;7.85;4.10;;;;;;;24.85;60.44;98404.81;1222024;75;2939965;-79
2023/09/27 06:51:28;;;;;;;4.60;3.00;;;;;;;27.60;54.66;98405.34;1220178;75;3000974;-76
2023/09/27 06:54:02;;;;;;;4.70;3.50;;;;;;;27.70;53.31;98405.44;1205943;75;3949606;-79
2023/09/27 06:56:35;;;;;;;4.25;3.35;;;;;;;25.48;58.83;98407.88;1223445;75;2929590;-77
2023/09/27 06:59:08;;;;;;;2.85;2.40;;;;;;;25.17;61.21;98415.53;1215570;75;3099983;-79
2023/09/27 07:01:44;;;;;;;2.60;2.40;;;;;;;23.68;65.24;98427.09;1222896;75;2980781;-77
2023/09/27 07:04:16;;;;;;;5.10;3.40;;;;;;;21.80;73.33;98425.31;1218747;75;3103436;-76
2023/09/27 07:06:49;;;;;;;4.70;3.45;;;;;;;21.39;80.33;98420.16;1224194;75;2922775;-79
2023/09/27 07:09:22;;;;;;;5.65;3.30;;;;;;;22.31;77.06;98429.94;1223804;75;2931077;-77
2023/09/27 07:11:55;;;;;;;5.00;3.10;;;;;;;21.95;76.93;98427.56;1220759;75;2983230;-77
2023/09/27 07:14:28;;;;;;;4.55;2.70;;;;;;;22.34;75.75;98428.84;1223718;75;2918774;-81
2023/09/27 07:17:04;;;;;;;5.20;4.05;;;;;;;20.44;90.00;98436.91;1221821;75;3000586;-77
2023/09/27 07:19:37;;;;;;;8.90;3.50;;;;;;;20.70;89.71;98436.34;1209510;75;4101847;-76
2023/09/27 07:22:13;;;;;;;7.35;4.30;;;;;;;20.00;97.43;98438.94;1223174;75;2920582;-77
2023/09/27 07:24:45;;;;;;;7.70;4.70;;;;;;;19.45;100.00;98438.16;1217693;75;3085398;-79
2023/09/27 07:27:18;;;;;;;6.90;4.40;;;;;;;19.96;100.00;98444.78;1223802;75;2926786;-80
2023/09/27 07:29:50;;;;;;;7.90;4.75;;;;;;;20.12;100.00;98439.56;1223116;75;2926778;-77
2023/09/27 07:32:26;;;;;;;5.90;4.45;;;;;;;19.96;100.00;98446.81;1221466;75;3032184;-78
2023/09/27 07:34:58;;;;;;;;;;;;;;;19.53;100.00;98448.19;1218929;75;3073442;-78
2023/09/27 07:37:32;;;;;;;6.95;5.25;;;;;;;19.63;100.00;98456.94;1223863;75;2921002;-72
2023/09/27 07:40:10;;;;;;;9.65;5.85;;;;;;;19.08;100.00;98445.00;1223552;75;2930236;-73
2023/09/27 07:42:44;;;;;;;;;;;;;;;19.89;100.00;98459.28;1225305;83;2929145;-75
2023/09/27 07:45:26;;;;;;;6.40;5.50;;;;;;;19.85;100.00;98464.34;1182082;75;4789305;-76
2023/09/27 07:48:02;;;;;;;9.85;6.05;;;;;;;19.05;100.00;98469.00;1185626;75;5921218;-77
2023/09/27 07:50:34;;;;;;;7.95;5.80;;;;;;;19.44;100.00;98465.19;1192734;75;5278254;-76
2023/09/27 07:53:08;;;;;;;7.45;5.90;;;;;;;19.67;100.00;98467.75;1220763;75;2926122;-79
2023/09/27 07:55:48;;;;;;;12.60;6.10;;;;;;;19.33;100.00;98470.81;1210919;75;3846970;-76
2023/09/27 07:58:21;;;;;;;5.95;5.05;;;;;;;20.04;100.00;98469.22;1224253;75;2937393;-78
2023/09/27 08:00:54;;;;;;;6.30;4.50;;;;;;;20.78;100.00;98467.13;1221098;75;3065668;-74
2023/09/27 08:03:27;;;;;;;5.85;4.90;;;;;;;20.73;97.05;98476.28;1221536;75;3105042;-75
2023/09/27 08:05:59;;;;;;;9.10;5.30;;;;;;;20.87;96.78;98475.09;1219402;75;3051491;-75
2023/09/27 08:08:32;;;;;;;6.05;4.40;;;;;;;21.76;90.73;98471.50;1223286;75;2920175;-76
2023/09/27 08:11:05;;;;;;;6.60;4.95;;;;;;;21.83;86.57;98468.81;1224983;75;2924526;-77
2023/09/27 08:13:40;;;;;;;7.65;4.50;;;;;;;21.84;86.72;98469.56;1221163;75;2918691;-77
2023/09/27 08:16:12;;;;;;;5.10;4.35;;;;;;;23.00;78.67;98466.34;1221804;75;2919919;-78
2023/09/27 08:18:48;;;;;;;6.00;4.45;;;;;;;22.61;79.56;98476.25;1218267;67;3088867;-78
2023/09/27 08:21:21;;;;;;;11.15;5.60;;;;;;;22.44;81.44;98479.38;1223389;75;2925032;-79
2023/09/27 08:23:56;;;;;;;6.05;4.60;;;;;;;23.03;76.43;98488.34;1220874;75;3042361;-77
2023/09/27 08:26:29;;;;;;;7.75;4.95;;;;;;;23.65;72.65;98472.94;1222428;75;2936160;-75
2023/09/27 08:29:02;;;;;;;7.50;5.60;;;;;;;23.94;71.52;98473.75;1222932;75;2928851;-75
2023/09/27 08:31:37;;;;;;;5.40;4.80;;;;;;;24.69;66.69;98470.47;1222034;75;3019169;-77
2023/09/27 08:34:13;;;;;;;4.95;3.70;;;;;;;26.07;62.03;98465.06;1222018;75;2983205;-79
2023/09/27 08:36:46;;;;;;;7.15;5.00;;;;;;;26.75;59.30;98460.59;1220480;75;2963072;-74
2023/09/27 08:39:19;;;;;;;7.50;4.25;;;;;;;27.92;57.25;98462.84;1209593;75;3829728;-77
2023/09/27 08:41:51;;;;;;;5.45;4.00;;;;;;;27.38;56.25;98454.81;1220023;75;3044423;-78
2023/09/27 08:44:26;;;;;;;5.20;3.50;;;;;;;27.01;58.20;98450.91;1211874;75;3833744;-80
2023/09/27 08:47:00;;;;;;;6.05;3.25;;;;;;;26.90;58.76;98460.53;1223751;75;2924190;-78
2023/09/27 08:49:36;;;;;;;5.40;3.55;;;;;;;26.69;58.21;98455.19;1223307;75;2935195;-76
2023/09/27 08:52:13;;;;;;;8.15;4.45;;;;;;;25.56;61.54;98463.94;1222599;75;2922932;-78
2023/09/27 08:54:46;;;;;;;5.30;3.65;;;;;;;25.41;62.48;98463.94;1222875;75;2963297;-74
2023/09/27 08:57:19;;;;;;;4.20;3.20;;;;;;;25.83;62.52;98467.16;1223055;75;3052820;-74
2023/09/27 08:59:52;;;;;;;5.40;4.00;;;;;;;24.94;64.31;98470.72;1226355;75;2927665;-71
2023/09/27 09:02:27;;;;;;;4.20;3.60;;;;;;;25.46;63.37;98466.56;1224145;75;3072237;-79
2023/09/27 09:05:04;;;;;;;6.15;3.60;;;;;;;25.25;65.31;98471.56;1225907;75;2924922;-75
2023/09/27 09:07:37;;;;;;;4.70;4.20;;;;;;;24.93;65.43;98469.97;1227756;75;2934955;-76
2023/09/27 09:10:16;;;;;;;8.00;4.40;;;;;;;23.85;70.40;98465.09;1226862;75;2932018;-75
2023/09/27 09:12:50;;;;;;;8.40;5.10;;;;;;;22.92;77.09;98466.97;1224418;75;3035944;-76
2023/09/27 09:15:40;;;;;;;7.65;5.50;;;;;;;22.87;81.36;98472.66;1224018;75;3100493;-74
2023/09/27 09:18:16;;;;;;;7.35;4.80;;;;;;;22.90;80.15;98472.34;1223664;75;2968355;-75
2023/09/27 09:20:59;;;;;;;8.00;5.20;;;;;;;23.61;75.38;98469.72;1220600;75;3037798;-76
2023/09/27 09:23:34;;;;;;;6.90;4.00;;;;;;;24.95;70.09;98472.25;1222759;75;3078968;-77
2023/09/27 09:26:09;;;;;;;5.05;4.00;;;;;;;25.65;65.71;98476.69;1223265;75;3063199;-76
2023/09/27 09:28:59;;;;;;;9.75;5.10;;;;;;;24.58;68.94;98468.72;1227213;75;2917334;-75
2023/09/27 09:31:33;;;;;;;5.30;4.40;;;;;;;25.14;67.29;98460.72;1225456;75;3052794;-72
2023/09/27 09:34:07;;;;;;;12.00;5.45;;;;;;;24.71;66.56;98470.66;1204233;75;4196046;-77
2023/09/27 09:36:43;;;;;;;6.90;3.90;;;;;;;25.33;65.61;98463.94;1221661;75;3052849;-76
2023/09/27 09:39:17;;;;;;;5.85;3.80;;;;;;;25.46;65.40;98463.03;1225783;75;3078424;-74
2023/09/27 09:41:52;;;;;;;6.00;4.50;;;;;;;24.49;66.25;98464.41;1222538;75;3069535;-76
2023/09/27 09:44:26;;;;;;;5.80;4.05;;;;;;;24.63;67.18;98462.22;1210036;75;3946949;-77
2023/09/27 09:47:10;;;;;;;4.55;3.15;;;;;;;25.27;65.04;98466.16;1223465;75;3056391;-75
2023/09/27 09:49:46;;;;;;;6.25;3.80;;;;;;;24.23;67.53;98465.34;1225356;75;2930462;-74
2023/09/27 09:52:28;;;;;;;6.75;4.45;;;;;;;24.08;68.82;98470.88;1210558;75;3792542;-74
2023/09/27 09:55:02;;;;;;;5.70;3.70;;;;;;;25.12;66.58;98461.25;1224979;75;3044968;-76
2023/09/27 09:57:38;;;;;;;9.45;4.65;;;;;;;24.67;68.02;98471.75;1225840;75;3065045;-79
2023/09/27 10:00:17;;;;;;;5.10;3.95;;;;;;;24.73;65.51;98460.41;1224512;75;3093050;-78
2023/09/27 10:02:53;;;;;;;5.15;3.30;;;;;;;25.96;61.69;98469.03;1221786;75;3039457;-76
2023/09/27 10:05:26;;;;;;;7.55;4.85;;;;;;;25.32;63.47;98456.81;1227231;75;2921325;-76
2023/09/27 10:08:02;;;;;;;5.70;4.15;;;;;;;25.68;63.58;98470.69;1215007;75;3846059;-76
2023/09/27 10:10:37;;;;;;;7.80;3.60;;;;;;;25.89;62.49;98458.56;1224360;75;3026107;-76
2023/09/27 10:13:12;;;;;;;8.35;4.30;;;;;;;25.70;62.07;98448.44;1228187;75;2931053;-76
2023/09/27 10:15:47;;;;;;;5.55;3.60;;;;;;;25.69;63.77;98463.03;1224313;75;3045297;-78
2023/09/27 10:18:41;;;;;;;4.75;3.30;;;;;;;27.38;60.05;98459.72;1222398;75;3083118;-74
2023/09/27 10:21:15;;;;;;;4.90;3.30;;;;;;;27.68;57.52;98455.16;1226616;75;2924592;-73
2023/09/27 10:24:10;;;;;;;4.80;3.10;;;;;;;27.63;57.14;98451.25;1225829;75;2931363;-75
2023/09/27 10:26:43;;;;;;;4.55;3.10;;;;;;;29.21;54.02;98444.28;1201992;75;3852806;-77
2023/09/27 10:29:18;;;;;;;3.60;2.75;;;;;;;29.30;51.59;98435.88;1221893;75;3128961;-75
2023/09/27 10:32:23;;;;;;;3.20;2.15;;;;;;;30.30;50.05;98439.09;1226544;75;2920407;-75
2023/09/27 10:34:56;;;;;;;4.90;2.95;;;;;;;30.28;48.43;98436.88;1226388;75;2928248;-77
2023/09/27 10:38:04;;;;;;;3.90;2.80;;;;;;;30.79;47.41;98434.16;1207489;75;4157056;-74
2023/09/27 10:40:48;;;;;;;6.70;2.70;;;;;;;31.24;46.70;98425.25;1224615;75;3098090;-74
2023/09/27 10:43:43;;;;;;;4.15;2.20;;;;;;;30.85;45.22;98414.06;1224477;75;2923235;-78
2023/09/27 10:46:16;;;;;;;4.10;2.85;;;;;;;30.56;45.16;98415.59;1224075;75;3016123;-76
2023/09/27 10:48:57;;;;;;;4.60;3.00;;;;;;;29.75;45.62;98403.94;1227451;75;2922045;-77
2023/09/27 10:51:30;;;;;;;3.20;2.85;;;;;;;30.09;44.42;98400.88;1225323;75;2928030;-74
2023/09/27 10:54:08;;;;;;;4.90;3.00;;;;;;;30.54;43.91;98401.31;1222679;75;3066415;-75
2023/09/27 10:56:52;;;;;;;4.60;3.30;;;;;;;30.22;44.58;98391.22;1224960;75;3029598;-78
2023/09/27 10:59:29;;;;;;;3.60;2.65;;;;;;;30.39;43.63;98393.16;1226906;75;2923391;-73
2023/09/27 11:02:02;;;;;;;4.70;2.30;;;;;;;30.94;42.34;98388.59;1223611;75;2990279;-78
2023/09/27 11:04:36;;;;;;;4.20;2.50;;;;;;;30.30;45.79;98391.06;1223008;75;3015087;-75
2023/09/27 11:07:09;;;;;;;3.15;2.15;;;;;;;31.25;42.45;98384.31;1225342;75;2970411;-74
2023/09/27 11:09:48;;;;;;;4.70;2.30;;;;;;;30.19;43.48;98388.81;1224549;75;2923332;-75
2023/09/27 11:12:29;;;;;;;3.20;2.50;;;;;;;31.98;40.84;98377.19;1221544;75;3097723;-73
2023/09/27 11:15:02;;;;;;;2.60;1.70;;;;;;;31.51;40.92;98374.06;1212199;75;3913737;-79
2023/09/27 11:17:34;;;;;;;4.40;2.00;;;;;;;30.77;42.71;98371.81;1226711;75;2927761;-76
2023/09/27 11:20:17;;;;;;;4.15;2.20;;;;;;;30.78;43.14;98371.19;1221055;75;2973692;-75
2023/09/27 11:22:50;;;;;;;3.30;2.25;;;;;;;31.88;40.82;98363.09;1226574;75;2919541;-77
2023/09/27 11:25:32;;;;;;;2.80;2.00;;;;;;;31.36;40.46;98361.00;1226734;75;2934000;-76
2023/09/27 11:28:08;;;;;;;5.15;2.40;;;;;;;30.40;40.55;98354.34;1225225;75;2921747;-75
2023/09/27 11:30:41;;;;;;;3.15;2.00;;;;;;;31.74;40.66;98356.47;1225848;75;2919126;-77
2023/09/27 11:33:16;;;;;;;4.80;2.40;;;;;;;31.57;39.50;98361.06;1225873;75;2933324;-77
2023/09/27 11:35:53;;;;;;;2.80;1.95;;;;;;;33.21;39.00;98353.72;1226167;75;2927534;-76
2023/09/27 11:38:30;;;;;;;3.30;2.30;;;;;;;31.81;37.35;98347.03;1225247;75;2945645;-73
2023/09/27 11:41:14;;;;;;;4.90;2.20;;;;;;;31.01;37.48;98352.28;1224539;75;3095404;-73
2023/09/27 11:43:50;;;;;;;2.20;1.80;;;;;;;32.34;37.20;98339.16;1222162;67;3087533;-76
2023/09/27 11:46:31;;;;;;;3.45;1.95;;;;;;;31.52;35.95;98350.81;1223018;75;3045463;-78